Time;durP1;ratioP1;P1;durP2;ratioP2;P2;SDS_P1;SDS_P2;PMS_P1;PMS_P2;Temp;Humidity;BMP_temperature;BMP_pressure;BME280_temperature;BME280_humidity;BME280_pressure;Samples;Min_cycle;Max_cycle;Signal;HPM_P1;HPM_P2
2021/08/30 00:01:00;;;;;;;7.95;6.65;;;;;;;15.06;87.41;100376.22;5008525;28;20060;-76
2021/08/30 00:03:25;;;;;;;8.50;5.43;;;;;;;15.17;86.86;100379.50;5010997;28;20042;-75
2021/08/30 00:05:50;;;;;;;8.57;6.28;;;;;;;15.24;86.11;100375.72;5010328;28;20032;-76
2021/08/30 00:08:16;;;;;;;6.85;5.88;;;;;;;15.31;85.89;100371.13;5013545;28;20115;-76
2021/08/30 00:10:41;;;;;;;7.50;6.63;;;;;;;15.31;86.08;100377.31;5011213;28;20849;-75
2021/08/30 00:13:06;;;;;;;9.38;6.68;;;;;;;15.30;86.59;100375.56;5010961;28;20528;-75
2021/08/30 00:15:32;;;;;;;8.98;6.38;;;;;;;15.29;86.57;100373.81;5010806;28;20392;-76
2021/08/30 00:17:57;;;;;;;7.65;6.55;;;;;;;15.27;86.79;100370.34;5011220;28;20056;-75
2021/08/30 00:20:23;;;;;;;7.53;6.45;;;;;;;15.24;86.90;100366.88;5010975;28;20042;-76
2021/08/30 00:22:49;;;;;;;7.30;6.43;;;;;;;15.28;87.27;100371.22;5011126;28;20037;-75
2021/08/30 00:25:14;;;;;;;7.97;7.18;;;;;;;15.27;87.24;100372.13;5011738;28;20022;-75
2021/08/30 00:27:40;;;;;;;7.00;5.97;;;;;;;15.29;87.44;100370.28;5014856;28;20052;-75
2021/08/30 00:30:08;;;;;;;7.90;6.80;;;;;;;15.34;87.13;100373.69;5012493;28;20508;-75
2021/08/30 00:32:34;;;;;;;8.00;7.05;;;;;;;15.31;87.29;100372.00;5013409;28;20033;-76
2021/08/30 00:34:59;;;;;;;7.50;6.63;;;;;;;15.34;87.05;100371.91;5014595;28;20048;-76
2021/08/30 00:37:24;;;;;;;9.32;7.05;;;;;;;15.38;86.92;100378.03;5014454;28;20064;-76
2021/08/30 00:39:50;;;;;;;9.65;6.85;;;;;;;15.41;86.39;100375.28;5013388;28;20092;-75
2021/08/30 00:42:15;;;;;;;9.88;8.10;;;;;;;15.43;85.87;100372.56;5014557;28;20432;-76
2021/08/30 00:44:41;;;;;;;7.93;6.40;;;;;;;15.44;85.87;100382.28;5014480;28;20055;-76
2021/08/30 00:47:06;;;;;;;8.18;6.25;;;;;;;15.41;85.99;100372.63;5014481;28;20058;-76
2021/08/30 00:49:32;;;;;;;7.20;6.05;;;;;;;15.36;86.44;100377.19;5014438;28;20060;-76
2021/08/30 00:51:58;;;;;;;6.82;5.97;;;;;;;15.38;86.36;100371.81;5014457;28;20045;-76
2021/08/30 00:54:27;;;;;;;7.85;7.05;;;;;;;15.41;85.86;100377.06;5014414;28;20036;-75
2021/08/30 00:56:52;;;;;;;7.20;6.05;;;;;;;15.45;86.02;100381.38;5012842;28;20065;-76
2021/08/30 00:59:18;;;;;;;8.13;5.68;;;;;;;15.37;86.04;100378.06;5014122;28;20132;-76
2021/08/30 01:01:43;;;;;;;7.63;6.00;;;;;;;15.39;85.73;100373.56;5012966;28;20966;-76
2021/08/30 01:04:10;;;;;;;11.48;7.20;;;;;;;15.23;86.09;100374.00;5014193;28;20070;-76
2021/08/30 01:06:46;;;;;;;8.40;6.18;;;;;;;15.13;86.54;100380.47;5013884;28;20092;-76
2021/08/30 01:09:33;;;;;;;7.00;5.72;;;;;;;15.13;86.27;100380.47;5014084;28;20029;-76
2021/08/30 01:12:08;;;;;;;7.78;6.75;;;;;;;14.99;86.00;100382.66;5010954;28;20038;-76
2021/08/30 01:14:47;;;;;;;7.35;6.55;;;;;;;14.79;86.73;100384.03;5012151;28;20041;-75
2021/08/30 01:17:14;;;;;;;8.30;6.97;;;;;;;14.61;87.11;100384.50;5010319;28;20034;-76
2021/08/30 01:19:46;;;;;;;8.00;5.93;;;;;;;14.48;87.55;100378.59;5020899;28;20062;-75
2021/08/30 01:22:13;;;;;;;10.48;5.72;;;;;;;14.40;87.31;100389.38;5013877;28;20463;-76
2021/08/30 01:24:38;;;;;;;87.07;8.57;;;;;;;14.30;87.16;100401.13;5013404;28;20377;-74
2021/08/30 01:27:04;;;;;;;6.50;4.93;;;;;;;14.19;87.64;100397.88;5011647;28;20032;-76
2021/08/30 01:29:43;;;;;;;10.00;6.57;;;;;;;14.12;88.04;100401.56;5013585;28;20065;-75
2021/08/30 01:32:31;;;;;;;8.40;6.40;;;;;;;14.06;88.37;100401.72;5009669;28;20057;-76
2021/08/30 01:35:00;;;;;;;10.07;7.13;;;;;;;13.99;88.68;100404.50;5012388;28;20124;-74
2021/08/30 01:37:27;;;;;;;8.07;5.85;;;;;;;14.05;89.20;100405.28;5012338;28;20037;-76
2021/08/30 01:39:54;;;;;;;8.23;5.75;;;;;;;14.13;89.20;100398.03;5013471;28;20037;-76
2021/08/30 01:42:20;;;;;;;9.48;7.38;;;;;;;14.18;89.02;100396.13;5009776;28;20076;-76
2021/08/30 01:44:46;;;;;;;7.35;6.10;;;;;;;14.20;88.56;100404.91;5013671;28;20058;-75
2021/08/30 01:47:12;;;;;;;9.30;6.45;;;;;;;14.19;88.83;100409.34;5013190;28;20550;-75
2021/08/30 01:49:37;;;;;;;9.32;7.20;;;;;;;14.23;88.72;100400.41;5011726;28;20046;-75
2021/08/30 01:52:03;;;;;;;5.80;4.57;;;;;;;14.23;88.56;100403.06;5013401;28;20073;-76
2021/08/30 01:54:29;;;;;;;8.30;5.78;;;;;;;14.23;88.78;100399.56;5013311;28;20029;-75
2021/08/30 01:56:56;;;;;;;6.82;5.30;;;;;;;14.26;89.00;100399.47;5012972;28;20559;-75
2021/08/30 02:02:09;;;;;;;6.47;5.35;;;;;;;14.21;88.57;100396.06;5009647;28;20044;-75
2021/08/30 02:04:36;;;;;;;7.35;6.25;;;;;;;14.13;89.04;100396.22;5013060;28;20046;-75
2021/08/30 02:07:03;;;;;;;7.32;6.22;;;;;;;14.06;89.51;100388.44;5012500;28;20526;-75
2021/08/30 02:09:30;;;;;;;6.18;5.40;;;;;;;14.03;89.66;100379.63;5012858;28;20034;-75
2021/08/30 02:11:55;;;;;;;9.32;7.13;;;;;;;14.00;89.46;100379.72;5012933;28;20124;-75
2021/08/30 02:14:21;;;;;;;12.27;9.25;;;;;;;14.00;89.39;100392.97;5011556;28;20120;-76
2021/08/30 02:16:50;;;;;;;12.52;5.95;;;;;;;13.99;88.92;100391.25;5012304;28;20042;-76
2021/08/30 02:19:39;;;;;;;8.90;3.58;;;;;;;13.92;89.22;100392.28;5012771;28;20040;-75
2021/08/30 02:22:13;;;;;;;5.82;4.47;;;;;;;13.95;88.85;100394.84;5011340;28;20038;-76
2021/08/30 02:24:59;;;;;;;5.90;4.80;;;;;;;13.93;89.00;100396.66;5012833;28;20400;-74
2021/08/30 02:27:32;;;;;;;7.15;5.28;;;;;;;13.97;89.59;100402.81;5010276;28;20092;-75
2021/08/30 02:30:04;;;;;;;43.08;7.55;;;;;;;14.02;89.37;100395.59;5012628;28;20468;-75
2021/08/30 02:32:32;;;;;;;10.02;5.68;;;;;;;14.03;88.82;100392.03;5016391;28;20030;-75
2021/08/30 02:35:00;;;;;;;11.55;7.47;;;;;;;13.94;89.48;100393.13;5015524;28;20074;-76
2021/08/30 02:37:30;;;;;;;9.93;7.32;;;;;;;13.94;89.88;100398.44;5015871;28;20044;-76
2021/08/30 02:39:57;;;;;;;14.23;6.55;;;;;;;14.02;89.79;100399.13;5012854;28;20080;-76
2021/08/30 02:42:23;;;;;;;47.08;8.25;;;;;;;14.06;89.42;100407.00;5012360;28;20038;-75
2021/08/30 02:44:49;;;;;;;12.10;5.50;;;;;;;14.09;89.71;100407.81;5012352;28;20029;-76
2021/08/30 02:47:16;;;;;;;7.50;5.97;;;;;;;14.16;89.22;100405.91;5012069;28;20616;-76
2021/08/30 02:49:44;;;;;;;8.25;6.38;;;;;;;14.24;89.05;100403.94;5011973;28;20554;-76
2021/08/30 02:52:10;;;;;;;9.50;7.80;;;;;;;14.39;89.06;100408.03;5012095;28;20026;-75
2021/08/30 02:54:38;;;;;;;8.52;7.55;;;;;;;14.51;88.63;100415.69;5010957;28;20573;-75
2021/08/30 02:57:05;;;;;;;7.88;6.68;;;;;;;14.62;88.77;100418.13;5011908;28;20124;-75
2021/08/30 02:59:32;;;;;;;7.15;5.85;;;;;;;14.73;88.54;100420.53;5012194;28;20064;-75
2021/08/30 03:01:59;;;;;;;6.93;5.93;;;;;;;14.82;88.34;100421.13;5011905;28;20412;-75
2021/08/30 03:04:25;;;;;;;10.45;8.13;;;;;;;14.84;88.00;100419.31;5012031;28;20038;-76
2021/08/30 03:06:52;;;;;;;8.07;6.03;;;;;;;14.81;88.17;100418.53;5011551;28;20033;-76
2021/08/30 03:09:17;;;;;;;8.68;5.72;;;;;;;14.84;87.85;100424.63;5011886;28;20526;-76
2021/08/30 03:11:43;;;;;;;7.45;6.20;;;;;;;14.86;87.97;100417.50;5011880;28;20033;-75
2021/08/30 03:14:09;;;;;;;8.02;6.72;;;;;;;14.86;87.91;100412.19;5011793;28;20038;-75
2021/08/30 03:16:36;;;;;;;7.70;6.35;;;;;;;14.86;87.80;100406.00;5011542;28;20044;-76
2021/08/30 03:19:03;;;;;;;7.18;5.97;;;;;;;14.90;87.39;100403.22;5011788;28;20129;-75
2021/08/30 03:21:29;;;;;;;9.30;6.80;;;;;;;14.94;86.98;100409.34;5007722;28;20496;-75
2021/08/30 03:23:56;;;;;;;8.40;7.03;;;;;;;14.94;86.67;100408.47;5011768;28;20057;-75
2021/08/30 03:26:24;;;;;;;6.70;5.90;;;;;;;14.89;86.99;100406.78;5010020;28;20072;-75
2021/08/30 03:28:51;;;;;;;8.35;6.80;;;;;;;14.88;87.17;100404.16;5011646;28;20036;-76
2021/08/30 03:31:17;;;;;;;7.68;6.50;;;;;;;14.93;87.48;100404.91;5010328;28;20069;-75
2021/08/30 03:33:43;;;;;;;8.88;6.65;;;;;;;14.98;86.82;100410.13;5011575;28;20033;-75
2021/08/30 03:36:10;;;;;;;9.48;7.93;;;;;;;14.98;87.43;100410.13;5010760;28;20567;-76
2021/08/30 03:38:37;;;;;;;11.80;8.70;;;;;;;15.04;87.18;100407.31;5011541;28;20484;-76
2021/08/30 03:41:04;;;;;;;9.38;6.97;;;;;;;15.08;87.15;100416.94;5010256;28;20419;-76
2021/08/30 03:43:29;;;;;;;10.75;8.82;;;;;;;15.00;86.77;100406.50;5011156;28;20511;-76
2021/08/30 03:45:56;;;;;;;13.70;9.32;;;;;;;14.99;87.23;100411.88;5011021;28;20125;-75
2021/08/30 03:48:23;;;;;;;16.02;10.98;;;;;;;15.01;87.26;100418.00;5011475;28;20061;-76
2021/08/30 03:50:50;;;;;;;14.88;10.30;;;;;;;15.09;88.08;100413.34;5010724;28;20531;-75
2021/08/30 03:53:19;;;;;;;22.33;11.23;;;;;;;15.16;87.69;100404.31;5008183;28;20042;-75
2021/08/30 03:55:46;;;;;;;16.13;10.07;;;;;;;15.19;87.18;100414.00;5010722;28;20038;-76
2021/08/30 03:58:13;;;;;;;23.45;12.00;;;;;;;15.20;86.91;100403.34;5011379;28;20026;-76
2021/08/30 04:00:41;;;;;;;16.33;10.63;;;;;;;15.22;86.88;100408.59;5012789;28;20057;-76
2021/08/30 04:03:09;;;;;;;15.40;11.38;;;;;;;15.19;87.30;100411.34;5028557;28;20197;-75
2021/08/30 04:05:35;;;;;;;14.77;10.68;;;;;;;15.19;87.67;100406.00;5014831;28;20025;-75
2021/08/30 04:08:01;;;;;;;13.38;10.07;;;;;;;15.21;87.68;100406.84;5015248;28;20571;-75
2021/08/30 04:10:28;;;;;;;14.30;9.48;;;;;;;15.26;87.69;100421.75;5011514;28;20038;-75
2021/08/30 04:12:55;;;;;;;15.70;10.52;;;;;;;15.21;87.30;100412.16;5013020;28;20040;-75
2021/08/30 04:15:22;;;;;;;14.73;10.50;;;;;;;15.21;87.57;100417.50;5014600;28;20045;-75
2021/08/30 04:17:47;;;;;;;12.15;9.68;;;;;;;15.24;87.19;100406.75;5015073;28;20046;-76
2021/08/30 04:20:13;;;;;;;13.70;10.30;;;;;;;15.21;87.37;100407.72;5014225;28;20042;-74
2021/08/30 04:22:38;;;;;;;17.48;11.68;;;;;;;15.21;87.44;100407.72;5011025;28;20033;-75
2021/08/30 04:25:05;;;;;;;20.35;12.20;;;;;;;15.19;87.62;100406.00;5015080;28;20069;-75
2021/08/30 04:27:30;;;;;;;15.25;10.13;;;;;;;15.19;87.96;100411.34;5014778;28;20041;-75
2021/08/30 04:29:56;;;;;;;13.75;10.07;;;;;;;15.21;87.92;100412.16;5014369;28;20037;-75
2021/08/30 04:32:21;;;;;;;16.55;11.52;;;;;;;15.22;88.13;100417.47;5029374;28;20484;-74
2021/08/30 04:34:46;;;;;;;15.85;11.02;;;;;;;15.20;88.34;100416.63;5014342;28;20096;-74
2021/08/30 04:37:12;;;;;;;17.05;9.63;;;;;;;15.28;88.21;100411.97;5014461;28;20042;-75
2021/08/30 04:39:37;;;;;;;16.50;10.50;;;;;;;15.28;88.04;100414.63;5014472;28;20104;-75
2021/08/30 04:42:05;;;;;;;17.35;10.15;;;;;;;15.33;88.28;100417.16;5014499;28;20104;-75
2021/08/30 04:44:31;;;;;;;21.63;10.20;;;;;;;15.38;87.83;100420.56;5013454;28;20025;-74
2021/08/30 04:46:56;;;;;;;13.18;8.98;;;;;;;15.38;87.38;100422.34;5011687;28;20029;-75
2021/08/30 04:49:22;;;;;;;13.82;9.52;;;;;;;15.29;87.53;100427.00;5012177;28;20107;-75
2021/08/30 04:51:47;;;;;;;12.63;8.85;;;;;;;15.17;88.07;100431.75;5014091;28;20133;-75
2021/08/30 04:54:12;;;;;;;11.48;8.63;;;;;;;15.18;88.59;100423.75;5010097;28;20065;-76
2021/08/30 04:56:38;;;;;;;12.25;8.30;;;;;;;15.29;88.38;100431.44;5013746;28;20048;-75
2021/08/30 04:59:03;;;;;;;11.80;9.30;;;;;;;15.21;88.40;100425.47;5014130;28;20045;-76
2021/08/30 05:01:28;;;;;;;10.70;7.15;;;;;;;15.20;88.11;100427.25;5012266;28;20029;-75
2021/08/30 05:03:54;;;;;;;14.05;9.05;;;;;;;15.21;88.30;100423.66;5012935;28;20025;-75
2021/08/30 05:06:19;;;;;;;14.35;9.23;;;;;;;15.32;88.05;100416.28;5012545;28;20068;-76
2021/08/30 05:08:44;;;;;;;11.93;9.30;;;;;;;15.44;87.34;100422.19;5013837;28;20042;-75
2021/08/30 05:11:10;;;;;;;10.18;8.10;;;;;;;15.48;86.60;100426.47;5013816;28;20124;-75
2021/08/30 05:13:35;;;;;;;11.02;8.50;;;;;;;15.53;86.68;100429.88;5013825;28;20409;-76
2021/08/30 05:16:00;;;;;;;12.50;8.70;;;;;;;15.61;86.47;100437.66;5013109;28;20408;-75
2021/08/30 05:18:26;;;;;;;17.88;9.27;;;;;;;15.61;86.54;100438.53;5013007;28;20396;-75
2021/08/30 05:20:52;;;;;;;18.13;10.63;;;;;;;15.52;86.24;100444.13;5013486;28;20492;-75
2021/08/30 05:23:18;;;;;;;21.85;13.05;;;;;;;15.34;87.28;100441.03;5013796;28;20041;-76
2021/08/30 05:25:44;;;;;;;19.27;11.00;;;;;;;15.37;87.84;100445.41;5013496;28;20033;-75
2021/08/30 05:28:09;;;;;;;14.40;9.50;;;;;;;15.49;87.13;100442.41;5013573;28;20029;-76
2021/08/30 05:30:35;;;;;;;27.10;11.48;;;;;;;15.48;87.01;100443.34;5013560;28;20033;-76
2021/08/30 05:33:01;;;;;;;23.80;11.93;;;;;;;15.48;86.96;100453.97;5013586;28;20396;-75
2021/08/30 05:35:26;;;;;;;28.42;10.68;;;;;;;15.53;86.90;100457.34;5013282;28;20064;-75
2021/08/30 05:37:51;;;;;;;19.20;9.30;;;;;;;15.49;85.97;100460.16;5010601;28;20034;-76
2021/08/30 05:40:17;;;;;;;19.60;9.63;;;;;;;15.44;85.97;100467.41;5013667;28;20395;-74
2021/08/30 05:42:42;;;;;;;21.30;8.32;;;;;;;15.45;86.38;100464.69;5013233;28;20478;-76
2021/08/30 05:45:08;;;;;;;31.63;9.52;;;;;;;15.45;85.92;100458.50;5009817;28;20493;-76
2021/08/30 05:47:33;;;;;;;60.50;10.30;;;;;;;15.42;86.20;100455.91;5012337;28;20038;-75
2021/08/30 05:49:59;;;;;;;25.60;7.65;;;;;;;15.50;86.23;100459.25;5013037;28;20504;-75
2021/08/30 05:52:25;;;;;;;20.33;7.00;;;;;;;15.52;86.00;100462.72;5013240;28;20494;-76
2021/08/30 05:54:50;;;;;;;13.20;7.38;;;;;;;15.54;85.86;100463.56;5013114;28;20038;-75
2021/08/30 05:57:16;;;;;;;39.83;10.35;;;;;;;15.68;85.99;100469.38;5012916;28;20052;-75
2021/08/30 05:59:41;;;;;;;15.65;8.20;;;;;;;15.76;85.58;100466.53;5009736;28;20164;-75
2021/08/30 06:02:07;;;;;;;12.93;8.85;;;;;;;15.89;85.36;100459.94;5008468;28;20504;-75
2021/08/30 06:04:32;;;;;;;11.10;8.15;;;;;;;15.98;85.15;100461.44;5007204;28;20518;-75
2021/08/30 06:06:57;;;;;;;9.82;7.30;;;;;;;16.08;84.38;100454.06;5007789;28;20564;-74
2021/08/30 06:09:22;;;;;;;10.88;8.02;;;;;;;16.10;84.21;100461.06;5006665;28;20545;-75
2021/08/30 06:11:50;;;;;;;10.48;7.30;;;;;;;16.17;84.16;100454.66;5009896;28;20088;-75
2021/08/30 06:14:15;;;;;;;10.30;7.00;;;;;;;16.26;83.72;100455.28;5012365;28;20073;-75
2021/08/30 06:16:41;;;;;;;11.85;6.57;;;;;;;16.34;83.14;100461.25;5010283;28;20068;-76
2021/08/30 06:19:06;;;;;;;30.35;7.43;;;;;;;16.44;82.47;100460.03;5009087;28;20033;-75
2021/08/30 06:21:32;;;;;;;8.75;5.60;;;;;;;16.31;81.90;100461.34;5012529;28;20393;-75
2021/08/30 06:23:58;;;;;;;6.82;5.38;;;;;;;16.19;83.09;100466.16;5010453;28;20034;-75
2021/08/30 06:26:23;;;;;;;6.68;5.13;;;;;;;16.10;83.00;100474.38;5011987;28;20061;-76
2021/08/30 06:28:48;;;;;;;12.10;4.40;;;;;;;15.91;83.21;100478.53;5011950;28;20030;-75
2021/08/30 06:31:14;;;;;;;28.08;5.40;;;;;;;15.63;83.85;100476.59;5009351;28;20116;-74
2021/08/30 06:33:39;;;;;;;15.35;5.20;;;;;;;15.43;84.99;100486.91;5010810;28;20037;-76
2021/08/30 06:36:04;;;;;;;7.53;4.97;;;;;;;15.49;85.79;100479.66;5009362;28;20037;-75
2021/08/30 06:38:30;;;;;;;13.07;5.60;;;;;;;15.63;85.33;100481.06;5007198;28;20037;-75
2021/08/30 06:40:55;;;;;;;38.40;7.28;;;;;;;15.66;85.11;100472.97;5008730;28;20038;-76
2021/08/30 06:43:21;;;;;;;20.20;5.20;;;;;;;15.73;84.39;100474.59;5008924;28;20037;-75
2021/08/30 06:45:46;;;;;;;12.65;4.90;;;;;;;15.74;84.90;100469.22;5010141;28;20037;-75
2021/08/30 06:48:11;;;;;;;21.63;5.07;;;;;;;15.98;84.06;100477.41;5012128;28;20101;-75
2021/08/30 06:50:37;;;;;;;7.05;5.05;;;;;;;16.19;83.68;100470.56;5011977;28;20053;-75
2021/08/30 06:53:02;;;;;;;37.17;5.25;;;;;;;16.31;82.60;100472.00;5012016;28;20401;-75
2021/08/30 06:55:28;;;;;;;15.00;4.35;;;;;;;16.24;82.45;100473.09;5011561;28;20049;-76
2021/08/30 06:57:53;;;;;;;24.30;4.80;;;;;;;16.09;83.27;100479.78;5011958;28;20076;-76
2021/08/30 07:00:18;;;;;;;9.20;4.22;;;;;;;15.99;83.42;100480.03;5007037;28;20030;-75
2021/08/30 07:02:45;;;;;;;23.13;4.28;;;;;;;15.94;83.57;100475.78;5006488;28;20147;-75
2021/08/30 07:05:10;;;;;;;8.50;4.38;;;;;;;15.81;83.98;100477.03;5011548;28;20046;-76
2021/08/30 07:07:36;;;;;;;5.30;3.90;;;;;;;15.66;84.86;100479.16;5011927;28;20159;-76
2021/08/30 07:10:01;;;;;;;4.63;3.05;;;;;;;15.72;84.89;100479.06;5011729;28;20407;-75
2021/08/30 07:12:27;;;;;;;4.22;2.97;;;;;;;16.02;84.33;100472.88;5011752;28;20443;-75
2021/08/30 07:14:52;;;;;;;4.25;2.92;;;;;;;16.33;82.87;100478.16;5010450;28;20044;-76
2021/08/30 07:17:17;;;;;;;3.50;2.60;;;;;;;16.55;82.08;100473.88;5011265;28;20026;-76
2021/08/30 07:19:43;;;;;;;2.63;1.83;;;;;;;16.74;80.15;100481.28;5011754;28;20034;-76
2021/08/30 07:22:08;;;;;;;2.60;1.55;;;;;;;16.81;79.55;100488.22;5011712;28;20045;-76
2021/08/30 07:24:34;;;;;;;2.67;1.58;;;;;;;16.97;78.87;100485.91;5011703;28;20038;-75
2021/08/30 07:27:02;;;;;;;2.70;1.77;;;;;;;16.93;78.31;100486.94;5011424;28;20061;-75
2021/08/30 07:29:28;;;;;;;3.80;2.45;;;;;;;17.00;78.04;100484.03;5011575;28;20037;-76
2021/08/30 07:31:53;;;;;;;3.17;2.13;;;;;;;17.07;78.46;100484.69;5025576;28;20041;-76
2021/08/30 07:34:18;;;;;;;3.38;2.10;;;;;;;16.97;77.82;100496.56;5011316;28;20109;-75
2021/08/30 07:36:44;;;;;;;3.95;2.25;;;;;;;16.92;78.23;100496.72;5010914;28;20045;-76
2021/08/30 07:39:09;;;;;;;3.38;1.70;;;;;;;17.04;77.98;100504.31;5011123;28;20141;-75
2021/08/30 07:41:35;;;;;;;3.03;1.88;;;;;;;17.19;77.50;100502.06;5011212;28;20091;-76
2021/08/30 07:44:00;;;;;;;2.97;2.00;;;;;;;17.39;76.86;100502.25;5007136;28;20034;-76
2021/08/30 07:46:26;;;;;;;3.20;2.28;;;;;;;17.66;76.37;100496.88;5011211;28;20125;-76
2021/08/30 07:48:51;;;;;;;2.78;1.75;;;;;;;17.90;75.69;100493.34;5011312;28;20075;-75
2021/08/30 07:51:18;;;;;;;3.08;2.00;;;;;;;18.04;74.06;100500.81;5011200;28;20042;-75
2021/08/30 07:53:43;;;;;;;2.20;1.45;;;;;;;18.18;74.17;100502.97;5009973;28;20042;-76
2021/08/30 07:56:11;;;;;;;3.58;1.98;;;;;;;18.32;73.28;100503.31;5011070;28;20060;-75
2021/08/30 07:58:36;;;;;;;3.58;1.70;;;;;;;18.31;73.14;100509.59;5011437;28;20084;-76
2021/08/30 08:01:02;;;;;;;2.30;1.25;;;;;;;18.38;72.96;100512.91;5011300;28;20074;-75
2021/08/30 08:03:27;;;;;;;1.85;1.20;;;;;;;18.39;72.12;100515.53;5011291;28;20037;-75
2021/08/30 08:05:52;;;;;;;2.13;1.20;;;;;;;18.33;73.02;100518.41;5010902;28;20041;-75
2021/08/30 08:08:18;;;;;;;4.55;1.90;;;;;;;18.36;73.49;100510.28;5009973;28;20038;-75
2021/08/30 08:10:43;;;;;;;4.88;1.83;;;;;;;18.50;72.96;100514.25;5011042;28;20030;-76
2021/08/30 08:13:10;;;;;;;4.45;2.50;;;;;;;18.49;72.32;100508.00;5007274;28;20035;-76
2021/08/30 08:15:36;;;;;;;3.75;1.48;;;;;;;18.59;72.51;100517.41;5010570;28;20032;-75
2021/08/30 08:18:02;;;;;;;5.65;1.40;;;;;;;18.71;71.91;100516.06;5006816;28;20409;-75
2021/08/30 08:20:27;;;;;;;13.18;4.55;;;;;;;18.66;71.83;100510.03;5011171;28;20413;-75
2021/08/30 08:22:53;;;;;;;4.82;1.70;;;;;;;18.68;71.72;100518.84;5006499;28;20034;-76
2021/08/30 08:25:18;;;;;;;2.25;1.25;;;;;;;18.85;71.30;100517.34;5007343;28;20113;-76
2021/08/30 08:27:44;;;;;;;2.45;1.10;;;;;;;18.97;70.48;100514.16;5007943;28;20033;-75
2021/08/30 08:30:09;;;;;;;1.65;1.17;;;;;;;19.05;69.51;100522.75;5007213;28;20038;-76
2021/08/30 08:32:35;;;;;;;1.92;1.17;;;;;;;19.23;68.68;100513.94;5007631;28;20030;-76
2021/08/30 08:35:02;;;;;;;2.47;1.35;;;;;;;19.36;68.06;100518.75;5008495;28;20078;-76
2021/08/30 08:37:27;;;;;;;1.80;1.02;;;;;;;19.63;67.47;100520.25;5006733;28;20057;-76
2021/08/30 08:39:52;;;;;;;3.05;2.22;;;;;;;19.68;67.18;100523.63;5008021;28;20076;-76
2021/08/30 08:42:18;;;;;;;2.70;1.90;;;;;;;19.69;65.88;100520.00;5024790;28;20053;-76
2021/08/30 08:44:47;;;;;;;5.20;2.85;;;;;;;19.83;65.95;100522.09;5010766;28;20070;-76
2021/08/30 08:47:15;;;;;;;2.80;1.77;;;;;;;19.95;65.40;100517.13;5013057;28;20065;-76
2021/08/30 08:49:41;;;;;;;2.30;1.40;;;;;;;20.07;65.35;100519.25;5014565;28;20038;-76
2021/08/30 08:52:07;;;;;;;2.60;1.50;;;;;;;19.99;64.68;100522.28;5011602;28;20032;-76
2021/08/30 08:54:32;;;;;;;2.00;1.20;;;;;;;19.75;66.36;100518.84;5012617;28;20554;-76
2021/08/30 08:56:58;;;;;;;2.80;1.50;;;;;;;19.70;65.90;100519.09;5013867;28;20677;-76
2021/08/30 08:59:23;;;;;;;2.75;1.83;;;;;;;19.61;65.86;100515.91;4996564;28;20381;-76
2021/08/30 09:01:59;;;;;;;2.80;1.58;;;;;;;19.56;66.46;100521.44;5005962;28;20034;-76
2021/08/30 09:04:32;;;;;;;1.65;1.00;;;;;;;19.67;65.49;100518.34;5011218;28;20091;-76
2021/08/30 09:07:32;;;;;;;2.42;1.40;;;;;;;19.43;67.01;100523.78;5011354;28;20481;-76
2021/08/30 09:10:05;;;;;;;2.63;1.40;;;;;;;19.42;66.92;100526.53;4954726;28;20091;-76
2021/08/30 09:12:32;;;;;;;2.08;1.33;;;;;;;19.25;67.72;100519.22;4993536;28;20041;-76
2021/08/30 09:14:58;;;;;;;2.10;1.40;;;;;;;19.11;68.25;100527.81;5013952;28;20060;-75
2021/08/30 09:17:23;;;;;;;2.15;1.33;;;;;;;19.03;68.47;100530.81;5012790;28;20292;-76
2021/08/30 09:19:53;;;;;;;3.08;1.58;;;;;;;19.10;67.51;100536.81;5012386;28;20042;-76
2021/08/30 09:22:31;;;;;;;2.72;1.45;;;;;;;18.97;67.20;100531.06;5010211;28;20133;-76
2021/08/30 09:25:07;;;;;;;2.85;1.20;;;;;;;18.85;69.26;100528.91;5011905;28;20168;-76
2021/08/30 09:27:41;;;;;;;1.90;1.10;;;;;;;18.81;69.06;100524.59;5011322;28;20041;-76
2021/08/30 09:30:13;;;;;;;3.08;1.70;;;;;;;18.80;69.41;100528.22;5010175;28;20034;-76
2021/08/30 09:32:41;;;;;;;2.08;1.25;;;;;;;18.77;69.61;100523.00;5012662;28;20064;-76
2021/08/30 09:35:08;;;;;;;3.55;1.45;;;;;;;18.64;70.03;100522.56;5013595;28;20033;-74
2021/08/30 09:37:39;;;;;;;3.53;1.40;;;;;;;18.68;69.27;100524.22;5012511;28;20034;-76
2021/08/30 09:40:08;;;;;;;5.13;1.93;;;;;;;18.55;70.50;100525.63;5013324;28;20037;-76
2021/08/30 09:42:33;;;;;;;7.00;3.10;;;;;;;18.64;70.09;100527.91;5013470;28;20378;-76
2021/08/30 09:45:12;;;;;;;3.58;1.80;;;;;;;18.81;69.83;100521.91;5010333;28;20073;-76
2021/08/30 09:47:48;;;;;;;3.78;2.17;;;;;;;19.01;69.27;100523.78;5013579;28;20034;-76
2021/08/30 09:50:13;;;;;;;4.63;2.50;;;;;;;19.11;68.98;100513.59;5008577;28;20038;-76
2021/08/30 09:52:38;;;;;;;3.78;2.22;;;;;;;19.31;67.97;100510.94;5013415;28;20045;-76
2021/08/30 09:55:04;;;;;;;3.75;1.95;;;;;;;19.56;66.97;100516.09;5013286;28;20046;-76
2021/08/30 09:57:30;;;;;;;2.15;1.48;;;;;;;19.65;67.15;100513.03;5012500;28;20038;-75
2021/08/30 09:59:56;;;;;;;3.50;2.30;;;;;;;19.83;65.59;100506.03;5013296;28;20026;-75
2021/08/30 10:02:28;;;;;;;2.15;1.38;;;;;;;20.01;65.54;100508.78;5011625;28;20088;-75
2021/08/30 10:04:53;;;;;;;3.47;1.50;;;;;;;19.89;64.68;100508.41;5013278;28;20037;-76
2021/08/30 10:07:19;;;;;;;2.85;1.80;;;;;;;19.78;65.66;100504.47;5012799;28;20145;-76
2021/08/30 10:09:46;;;;;;;3.30;1.80;;;;;;;19.78;65.65;100501.78;5012854;28;20447;-76
2021/08/30 10:12:12;;;;;;;3.70;1.92;;;;;;;19.88;64.92;100497.75;5012772;28;20092;-75
2021/08/30 10:14:38;;;;;;;3.20;2.15;;;;;;;19.86;64.32;100502.34;5013264;28;20041;-76
2021/08/30 10:17:04;;;;;;;3.45;1.70;;;;;;;19.76;64.59;100493.84;5014895;28;20044;-76
2021/08/30 10:19:39;;;;;;;2.85;1.70;;;;;;;19.83;65.40;100495.31;5013148;28;20424;-77
2021/08/30 10:22:19;;;;;;;3.20;2.00;;;;;;;19.74;65.49;100505.56;5013266;28;20109;-76
2021/08/30 10:24:45;;;;;;;3.28;2.25;;;;;;;19.69;65.37;100495.91;5021608;28;20117;-76
2021/08/30 10:27:11;;;;;;;2.85;1.70;;;;;;;19.65;64.90;100507.69;5013394;28;20017;-76
2021/08/30 10:29:39;;;;;;;3.40;2.13;;;;;;;19.67;65.18;100500.44;5013549;28;20042;-76
2021/08/30 10:32:08;;;;;;;3.95;1.77;;;;;;;19.59;65.00;100507.91;5008808;28;20038;-75
2021/08/30 10:34:38;;;;;;;3.55;2.40;;;;;;;19.56;65.62;100507.19;5013163;28;20042;-76
2021/08/30 10:37:04;;;;;;;3.05;1.92;;;;;;;19.64;65.47;100497.88;5013570;28;20563;-76
2021/08/30 10:39:41;;;;;;;3.92;2.08;;;;;;;19.64;65.56;100505.91;5012407;28;20108;-75
2021/08/30 10:42:10;;;;;;;2.72;1.85;;;;;;;19.56;65.97;100496.50;5011005;28;20037;-76
2021/08/30 10:44:55;;;;;;;3.30;2.20;;;;;;;19.66;65.07;100496.06;5012319;28;20051;-76
2021/08/30 10:47:25;;;;;;;3.38;2.10;;;;;;;19.75;66.15;100501.94;5011743;28;20042;-75
2021/08/30 10:49:52;;;;;;;2.63;1.70;;;;;;;19.76;64.91;100499.19;5011943;28;20037;-75
2021/08/30 10:52:17;;;;;;;3.22;1.67;;;;;;;19.73;64.94;100498.44;5009058;28;20053;-75
2021/08/30 10:54:54;;;;;;;2.75;1.92;;;;;;;19.62;65.24;100505.13;5009280;28;20942;-76
2021/08/30 10:57:33;;;;;;;3.50;1.88;;;;;;;19.47;65.73;100501.31;5006286;28;20056;-75
2021/08/30 10:59:59;;;;;;;4.68;2.40;;;;;;;19.62;65.22;100510.50;4997474;28;20404;-74
2021/08/30 11:02:55;;;;;;;4.05;1.85;;;;;;;19.80;64.70;100495.44;5011441;28;20029;-76
2021/08/30 11:05:26;;;;;;;3.63;2.10;;;;;;;19.72;64.78;100499.38;5008903;28;20061;-75
2021/08/30 11:07:53;;;;;;;6.55;2.90;;;;;;;19.82;64.35;100503.41;5012042;28;20046;-75
2021/08/30 11:10:23;;;;;;;6.47;3.83;;;;;;;20.02;64.21;100502.50;5011698;28;20129;-75
2021/08/30 11:12:49;;;;;;;3.30;2.17;;;;;;;20.17;63.34;100500.91;5011279;28;20113;-75
2021/08/30 11:15:14;;;;;;;3.38;2.08;;;;;;;20.22;63.68;100505.13;5010906;28;20544;-75
2021/08/30 11:17:39;;;;;;;3.63;1.80;;;;;;;20.28;63.19;100501.31;5011811;28;20044;-75
2021/08/30 11:20:06;;;;;;;2.60;1.70;;;;;;;20.27;62.15;100499.53;5011561;28;20053;-75
2021/08/30 11:22:32;;;;;;;2.92;2.17;;;;;;;19.87;63.17;100507.59;5011682;28;20042;-75
2021/08/30 11:24:59;;;;;;;3.05;2.10;;;;;;;19.97;63.01;100502.72;5011733;28;20029;-75